createdAt,value
2023-05-08T00:01:45.786Z,22.60
2023-05-08T00:04:14.088Z,22.87
2023-05-08T00:06:43.081Z,23.30
2023-05-08T00:09:11.222Z,23.70
2023-05-08T00:11:39.366Z,24.83
2023-05-08T00:14:07.660Z,24.53
2023-05-08T00:16:35.883Z,24.73
2023-05-08T00:19:05.550Z,24.30
2023-05-08T00:21:33.780Z,24.87
2023-05-08T00:24:01.921Z,24.20
2023-05-08T00:26:30.136Z,24.90
2023-05-08T00:28:58.349Z,23.70
2023-05-08T00:31:26.624Z,23.93
2023-05-08T00:33:54.785Z,22.57
2023-05-08T00:36:24.541Z,24.97
2023-05-08T00:38:53.716Z,24.00
2023-05-08T00:41:22.437Z,22.40
2023-05-08T00:43:51.071Z,24.73
2023-05-08T00:46:20.478Z,24.57
2023-05-08T00:48:49.099Z,25.70
2023-05-08T00:51:17.954Z,24.73
2023-05-08T00:53:47.620Z,25.57
2023-05-08T00:56:18.129Z,25.73
2023-05-08T00:58:46.603Z,24.17
2023-05-08T01:01:16.087Z,24.83
2023-05-08T01:03:45.391Z,24.70
2023-05-08T01:06:14.382Z,24.30
2023-05-08T01:08:48.050Z,25.80
2023-05-08T01:11:24.321Z,24.23
2023-05-08T01:13:59.728Z,24.80
2023-05-08T01:16:38.710Z,25.33
2023-05-08T01:19:41.667Z,26.33
2023-05-08T01:22:19.757Z,24.07
2023-05-08T01:25:21.402Z,26.63
2023-05-08T01:28:20.091Z,24.90
2023-05-08T01:31:06.705Z,26.40
2023-05-08T01:33:44.120Z,26.67
2023-05-08T01:36:27.998Z,25.37
2023-05-08T01:39:13.055Z,26.03
2023-05-08T01:41:47.345Z,25.27
2023-05-08T01:44:20.624Z,24.47
2023-05-08T01:46:52.548Z,25.63
2023-05-08T01:49:27.602Z,26.23
2023-05-08T01:52:03.797Z,26.03
2023-05-08T01:54:40.515Z,26.17
2023-05-08T01:57:11.885Z,26.33
2023-05-08T01:59:43.067Z,25.37
2023-05-08T02:02:12.525Z,26.33
2023-05-08T02:04:44.357Z,26.80
2023-05-08T02:07:12.921Z,25.97
2023-05-08T02:09:43.869Z,27.53
2023-05-08T02:12:13.910Z,26.63
2023-05-08T02:14:44.826Z,26.50
2023-05-08T02:17:15.486Z,25.73
2023-05-08T02:19:45.842Z,24.43
2023-05-08T02:22:16.375Z,26.43
2023-05-08T02:24:47.334Z,24.93
2023-05-08T02:27:17.035Z,25.27
2023-05-08T02:29:45.516Z,24.50
2023-05-08T02:32:14.354Z,25.50
2023-05-08T02:34:55.238Z,25.90
2023-05-08T02:37:32.466Z,24.70
2023-05-08T02:40:03.809Z,27.00
2023-05-08T02:42:32.112Z,25.13
2023-05-08T02:45:00.285Z,24.97
2023-05-08T02:47:34.295Z,26.40
2023-05-08T02:50:10.862Z,25.97
2023-05-08T02:52:45.831Z,27.30
2023-05-08T02:55:24.359Z,26.87
2023-05-08T02:58:05.270Z,26.40
2023-05-08T03:00:38.859Z,26.43
2023-05-08T03:03:23.014Z,24.97
2023-05-08T03:05:56.168Z,25.50
2023-05-08T03:08:30.314Z,24.37
2023-05-08T03:11:02.364Z,26.27
2023-05-08T03:13:35.577Z,25.93
2023-05-08T03:16:06.367Z,24.93
2023-05-08T03:18:37.833Z,25.40
2023-05-08T03:21:09.333Z,26.77
2023-05-08T03:23:40.157Z,25.60
2023-05-08T03:26:09.812Z,25.73
2023-05-08T03:28:39.007Z,26.27
2023-05-08T03:31:08.152Z,24.83
2023-05-08T03:33:39.657Z,24.70
2023-05-08T03:36:10.076Z,24.90
2023-05-08T03:38:38.521Z,24.00
2023-05-08T03:41:06.878Z,23.77
2023-05-08T03:43:37.530Z,25.07
2023-05-08T03:46:07.568Z,25.47
2023-05-08T03:48:36.515Z,25.10
2023-05-08T03:51:05.849Z,24.70
2023-05-08T03:53:35.551Z,23.93
2023-05-08T03:56:03.859Z,24.83
2023-05-08T03:58:38.281Z,24.63
2023-05-08T04:01:11.448Z,25.80
2023-05-08T04:03:55.595Z,25.00
2023-05-08T04:06:35.734Z,24.90
2023-05-08T04:09:18.502Z,25.27
2023-05-08T04:11:58.003Z,25.60
2023-05-08T04:14:38.831Z,25.43
2023-05-08T04:17:12.144Z,27.30
2023-05-08T04:19:47.291Z,28.57
2023-05-08T04:22:52.258Z,27.30
2023-05-08T04:25:23.130Z,28.00
2023-05-08T04:27:52.570Z,29.73
2023-05-08T04:30:21.165Z,28.47
2023-05-08T04:32:50.165Z,30.20
2023-05-08T04:35:18.576Z,29.37
2023-05-08T04:37:48.436Z,27.90
2023-05-08T04:40:33.191Z,28.37
2023-05-08T04:43:27.641Z,30.10
2023-05-08T04:49:55.463Z,30.70
2023-05-08T04:55:38.259Z,30.73
2023-05-08T04:58:06.625Z,31.20
2023-05-08T05:00:35.908Z,31.17
2023-05-08T05:03:26.478Z,31.53
2023-05-08T05:06:16.726Z,29.20
2023-05-08T05:08:44.829Z,32.33
2023-05-08T05:11:14.298Z,30.73
2023-05-08T05:13:42.403Z,30.30
2023-05-08T05:16:10.519Z,30.23
2023-05-08T05:18:38.667Z,32.33
2023-05-08T05:21:06.846Z,35.77
2023-05-08T05:23:34.909Z,30.60
2023-05-08T05:26:03.039Z,29.33
2023-05-08T05:28:32.489Z,31.97
2023-05-08T05:31:01.341Z,32.10
2023-05-08T05:33:29.606Z,30.47
2023-05-08T05:35:57.784Z,30.97
2023-05-08T05:38:25.957Z,31.93
2023-05-08T05:40:54.491Z,31.73
2023-05-08T05:43:23.964Z,32.30
2023-05-08T05:45:56.235Z,32.57
2023-05-08T05:48:25.086Z,33.20
2023-05-08T05:50:54.271Z,32.37
2023-05-08T05:53:23.380Z,33.37
2023-05-08T05:55:53.301Z,34.00
2023-05-08T05:58:21.956Z,33.00
2023-05-08T06:00:51.986Z,34.03
2023-05-08T06:03:21.916Z,34.20
2023-05-08T06:05:51.227Z,33.30
2023-05-08T06:08:22.698Z,34.00
2023-05-08T06:10:51.381Z,34.30
2023-05-08T06:13:20.325Z,32.67
2023-05-08T06:15:49.529Z,33.50
2023-05-08T06:18:17.844Z,33.17
2023-05-08T06:20:47.393Z,31.10
2023-05-08T06:23:15.587Z,33.53
2023-05-08T06:25:43.880Z,33.07
2023-05-08T06:28:13.213Z,30.40
2023-05-08T06:30:42.282Z,32.70
2023-05-08T06:33:11.484Z,31.90
2023-05-08T06:35:40.786Z,32.17
2023-05-08T06:38:13.000Z,30.70
2023-05-08T06:40:43.872Z,32.60
2023-05-08T06:43:12.846Z,32.87
2023-05-08T06:45:41.955Z,31.80
2023-05-08T06:48:10.648Z,33.30
2023-05-08T06:50:39.706Z,30.30
2023-05-08T06:53:08.813Z,31.47
2023-05-08T06:55:39.815Z,32.10
2023-05-08T06:58:09.269Z,32.33
2023-05-08T07:00:37.973Z,31.87
2023-05-08T07:03:08.454Z,33.47
2023-05-08T07:05:37.488Z,33.63
2023-05-08T07:08:06.667Z,30.33
2023-05-08T07:10:35.932Z,31.63
2023-05-08T07:13:05.986Z,32.90
2023-05-08T07:15:34.417Z,30.57
2023-05-08T07:18:03.140Z,29.77
2023-05-08T07:20:32.451Z,30.00
2023-05-08T07:23:00.835Z,30.17
2023-05-08T07:25:29.431Z,29.93
2023-05-08T07:27:59.811Z,30.23
2023-05-08T07:30:31.057Z,29.53
2023-05-08T07:32:59.582Z,29.83
2023-05-08T07:35:29.588Z,29.27
2023-05-08T07:37:58.095Z,30.80
2023-05-08T07:40:26.835Z,28.80
2023-05-08T07:42:56.001Z,28.43
2023-05-08T07:45:26.468Z,28.73
2023-05-08T07:47:57.747Z,29.10
2023-05-08T07:50:27.677Z,28.00
2023-05-08T07:52:55.852Z,26.70
2023-05-08T07:55:24.106Z,25.80
2023-05-08T07:57:52.553Z,25.83
2023-05-08T08:00:21.116Z,25.10
2023-05-08T08:02:51.268Z,25.07
2023-05-08T08:05:21.306Z,24.03
2023-05-08T08:07:49.649Z,24.80
2023-05-08T08:10:17.921Z,24.43
2023-05-08T08:12:46.398Z,23.63
2023-05-08T08:15:14.799Z,24.80
2023-05-08T08:17:43.198Z,24.87
2023-05-08T08:20:11.837Z,24.20
2023-05-08T08:22:41.744Z,24.17
2023-05-08T08:25:12.005Z,25.23
2023-05-08T08:27:40.829Z,24.40
2023-05-08T08:30:17.548Z,24.40
2023-05-08T08:32:47.091Z,25.83
2023-05-08T08:35:15.914Z,25.13
2023-05-08T08:37:48.569Z,25.23
2023-05-08T08:40:19.302Z,25.70
2023-05-08T08:42:49.034Z,25.30
2023-05-08T08:45:17.620Z,26.20
2023-05-08T08:47:46.927Z,26.07
2023-05-08T08:50:16.595Z,25.87
2023-05-08T08:52:54.868Z,26.90
2023-05-08T08:55:25.192Z,27.20
2023-05-08T08:58:01.846Z,26.63
2023-05-08T09:00:32.780Z,27.70
2023-05-08T09:03:01.384Z,27.20
2023-05-08T09:05:30.931Z,27.03
2023-05-08T09:08:02.235Z,27.03
2023-05-08T09:10:30.528Z,27.30
2023-05-08T09:12:59.009Z,27.20
2023-05-08T09:15:27.609Z,27.07
2023-05-08T09:17:56.462Z,24.73
2023-05-08T09:20:27.245Z,23.53
2023-05-08T09:22:55.987Z,25.57
2023-05-08T09:25:26.184Z,25.60
2023-05-08T09:27:54.361Z,25.17
2023-05-08T09:30:22.536Z,23.30
2023-05-08T09:32:51.020Z,22.60
2023-05-08T09:35:19.304Z,23.03
2023-05-08T09:37:47.840Z,24.77
2023-05-08T09:40:20.935Z,23.30
2023-05-08T09:42:52.143Z,22.77
2023-05-08T09:45:32.021Z,23.73
2023-05-08T09:48:01.153Z,23.10
2023-05-08T09:50:29.916Z,23.20
2023-05-08T09:52:58.704Z,21.77
2023-05-08T09:55:26.972Z,22.33
2023-05-08T09:57:58.427Z,21.83
2023-05-08T10:00:27.927Z,22.17
2023-05-08T10:02:58.583Z,22.67
2023-05-08T10:05:31.827Z,21.70
2023-05-08T10:08:18.937Z,20.63
2023-05-08T10:10:47.888Z,21.40
2023-05-08T10:13:18.490Z,20.43
2023-05-08T10:15:52.249Z,20.87
2023-05-08T10:18:25.783Z,21.43
2023-05-08T10:20:57.073Z,19.93
2023-05-08T10:23:25.748Z,20.17
2023-05-08T10:26:08.923Z,20.17
2023-05-08T10:28:44.771Z,20.10
2023-05-08T10:31:16.144Z,19.80
2023-05-08T10:33:46.969Z,19.30
2023-05-08T10:36:18.668Z,19.90
2023-05-08T10:38:47.720Z,20.30
2023-05-08T10:41:16.591Z,19.97
2023-05-08T10:43:47.288Z,20.17
2023-05-08T10:46:22.703Z,19.73
2023-05-08T10:49:00.416Z,19.10
2023-05-08T10:51:39.226Z,19.93
2023-05-08T10:54:15.826Z,19.07
2023-05-08T10:56:47.208Z,18.93
2023-05-08T10:59:21.389Z,18.00
2023-05-08T11:01:54.031Z,17.80
2023-05-08T11:04:24.094Z,18.37
2023-05-08T11:06:53.879Z,17.70
2023-05-08T11:09:24.974Z,17.87
2023-05-08T11:12:07.375Z,18.00
2023-05-08T11:14:46.577Z,18.00
2023-05-08T11:17:23.883Z,18.17
2023-05-08T11:19:59.745Z,18.00
2023-05-08T11:22:29.996Z,18.03
2023-05-08T11:25:06.540Z,18.43
2023-05-08T11:27:54.037Z,18.20
2023-05-08T11:30:29.077Z,18.87
2023-05-08T11:33:00.339Z,18.47
2023-05-08T11:35:52.526Z,19.10
2023-05-08T11:38:26.462Z,18.40
2023-05-08T11:41:00.372Z,19.03
2023-05-08T11:43:51.165Z,19.47
2023-05-08T11:46:23.013Z,19.77
2023-05-08T11:49:01.457Z,18.40
2023-05-08T11:51:33.705Z,18.40
2023-05-08T11:54:03.064Z,18.77
2023-05-08T11:56:32.408Z,18.77
2023-05-08T11:59:04.832Z,19.40
2023-05-08T12:01:34.775Z,18.80
2023-05-08T12:04:04.826Z,19.57
2023-05-08T12:06:34.676Z,18.90
2023-05-08T12:09:04.982Z,18.90
2023-05-08T12:11:33.303Z,20.50
2023-05-08T12:14:01.534Z,21.00
2023-05-08T12:16:29.772Z,20.77
2023-05-08T12:19:02.484Z,20.40
2023-05-08T12:21:30.871Z,20.67
2023-05-08T12:23:59.772Z,20.90
2023-05-08T12:26:28.480Z,21.50
2023-05-08T12:28:57.457Z,20.47
2023-05-08T12:31:25.984Z,20.97
2023-05-08T12:33:55.517Z,21.97
2023-05-08T12:36:25.146Z,22.93
2023-05-08T12:38:53.410Z,22.17
2023-05-08T12:41:26.415Z,22.70
2023-05-08T12:43:54.554Z,22.43
2023-05-08T12:46:22.789Z,22.60
2023-05-08T12:48:51.099Z,24.67
2023-05-08T12:51:19.251Z,24.00
2023-05-08T12:53:48.758Z,22.53
2023-05-08T12:56:23.646Z,22.70
2023-05-08T12:58:51.870Z,24.50
2023-05-08T13:01:20.010Z,24.57
2023-05-08T13:04:01.607Z,23.90
2023-05-08T13:06:31.800Z,23.17
2023-05-08T13:09:01.362Z,22.97
2023-05-08T13:11:31.512Z,23.27
2023-05-08T13:13:59.666Z,24.00
2023-05-08T13:16:28.054Z,22.37
2023-05-08T13:18:56.243Z,23.33
2023-05-08T13:21:26.594Z,23.03
2023-05-08T13:23:56.753Z,22.37
2023-05-08T13:26:26.983Z,21.93
2023-05-08T13:28:56.666Z,22.03
2023-05-08T13:31:24.904Z,22.27
2023-05-08T13:33:53.145Z,21.80
2023-05-08T13:36:21.570Z,22.13
2023-05-08T13:38:51.409Z,22.23
2023-05-08T13:41:19.579Z,23.13
2023-05-08T13:43:49.899Z,22.43
2023-05-08T13:46:18.215Z,22.63
2023-05-08T13:48:46.537Z,22.37
2023-05-08T13:51:14.719Z,22.80
2023-05-08T13:53:42.854Z,21.97
2023-05-08T13:56:11.261Z,22.10
2023-05-08T13:58:40.324Z,22.27
2023-05-08T14:01:25.115Z,22.37
2023-05-08T14:03:55.548Z,23.77
2023-05-08T14:06:24.388Z,24.17
2023-05-08T14:08:54.621Z,23.50
2023-05-08T14:11:25.064Z,23.13
2023-05-08T14:13:53.325Z,23.53
2023-05-08T14:16:23.265Z,22.33
2023-05-08T14:18:51.512Z,23.07
2023-05-08T14:21:19.756Z,22.17
2023-05-08T14:23:47.987Z,22.13
2023-05-08T14:26:17.642Z,21.40
2023-05-08T14:28:45.822Z,21.90
2023-05-08T14:31:14.132Z,22.10
2023-05-08T14:33:43.708Z,22.97
2023-05-08T14:36:12.527Z,22.27
2023-05-08T14:38:40.857Z,22.33
2023-05-08T14:41:09.261Z,21.37
2023-05-08T14:43:37.856Z,23.87
2023-05-08T14:46:24.082Z,27.43
2023-05-08T14:49:01.127Z,27.40
2023-05-08T14:51:37.329Z,29.30
2023-05-08T14:54:06.876Z,29.53
2023-05-08T14:56:47.220Z,28.37
2023-05-08T14:59:27.126Z,27.27
2023-05-08T15:02:02.919Z,26.20
2023-05-08T15:04:32.707Z,25.60
2023-05-08T15:07:00.851Z,24.60
2023-05-08T15:09:29.030Z,24.90
2023-05-08T15:11:57.501Z,27.00
2023-05-08T15:14:27.102Z,27.37
2023-05-08T15:16:55.207Z,27.43
2023-05-08T15:19:23.372Z,26.37
2023-05-08T15:21:53.041Z,28.50
2023-05-08T15:24:21.232Z,27.40
2023-05-08T15:26:49.493Z,28.90
2023-05-08T15:29:17.768Z,29.33
2023-05-08T15:31:46.015Z,30.87
2023-05-08T15:34:14.256Z,29.20
2023-05-08T15:36:42.362Z,31.63
2023-05-08T15:39:12.121Z,32.87
2023-05-08T15:41:41.632Z,32.20
2023-05-08T15:44:09.874Z,32.93
2023-05-08T15:46:38.191Z,32.40
2023-05-08T15:49:06.267Z,33.97
2023-05-08T15:51:34.627Z,30.90
2023-05-08T15:54:02.926Z,32.27
2023-05-08T15:56:32.740Z,32.40
2023-05-08T15:59:01.017Z,31.70
2023-05-08T16:01:29.414Z,31.93
2023-05-08T16:03:57.607Z,33.37
2023-05-08T16:06:26.112Z,30.63
2023-05-08T16:08:54.297Z,33.30
2023-05-08T16:11:22.772Z,31.10
2023-05-08T16:13:52.389Z,30.77
2023-05-08T16:16:20.611Z,30.13
2023-05-08T16:18:48.800Z,29.20
2023-05-08T16:21:16.930Z,32.03
2023-05-08T16:23:45.373Z,30.60
2023-05-08T16:26:15.622Z,30.70
2023-05-08T16:28:43.780Z,28.77
2023-05-08T16:31:13.433Z,29.93
2023-05-08T16:33:41.707Z,29.57
2023-05-08T16:36:10.195Z,30.50
2023-05-08T16:38:38.437Z,34.83
2023-05-08T16:41:09.204Z,30.37
2023-05-08T16:43:37.586Z,29.40
2023-05-08T16:46:07.962Z,31.50
2023-05-08T16:48:37.706Z,30.30
2023-05-08T16:51:05.976Z,29.53
2023-05-08T16:53:34.118Z,30.73
2023-05-08T16:56:02.372Z,29.87
2023-05-08T16:58:30.532Z,30.43
2023-05-08T17:00:58.752Z,31.47
2023-05-08T17:03:27.193Z,32.10
2023-05-08T17:05:56.808Z,33.10
2023-05-08T17:08:25.142Z,33.23
2023-05-08T17:10:54.285Z,33.37
2023-05-08T17:13:22.744Z,32.70
2023-05-08T17:15:51.232Z,33.10
2023-05-08T17:18:19.729Z,31.87
2023-05-08T17:20:48.025Z,30.93
2023-05-08T17:23:17.893Z,29.60
2023-05-08T17:25:46.265Z,28.83
2023-05-08T17:28:14.612Z,28.57
2023-05-08T17:30:43.369Z,29.03
2023-05-08T17:33:11.704Z,28.70
2023-05-08T17:35:39.984Z,27.67
2023-05-08T17:38:08.145Z,28.67
2023-05-08T17:40:39.053Z,27.67
2023-05-08T17:43:08.611Z,28.53
2023-05-08T17:45:36.909Z,27.63
2023-05-08T17:48:06.305Z,26.70
2023-05-08T17:50:35.677Z,26.47
2023-05-08T17:53:04.193Z,28.23
2023-05-08T17:55:34.597Z,29.97
2023-05-08T17:58:04.198Z,28.27
2023-05-08T18:00:32.490Z,26.60
2023-05-08T18:03:05.609Z,26.97
2023-05-08T18:05:35.340Z,27.10
2023-05-08T18:08:03.807Z,27.30
2023-05-08T18:10:32.463Z,27.37
2023-05-08T18:13:00.630Z,27.53
2023-05-08T18:15:30.306Z,26.40
2023-05-08T18:17:58.569Z,26.57
2023-05-08T18:20:26.919Z,26.17
2023-05-08T18:22:55.082Z,26.17
2023-05-08T18:25:23.366Z,26.30
2023-05-08T18:27:51.858Z,24.03
2023-05-08T18:30:22.147Z,22.40
2023-05-08T18:32:53.332Z,20.90
2023-05-08T18:35:21.678Z,21.43
2023-05-08T18:37:49.901Z,20.47
2023-05-08T18:40:18.227Z,20.87
2023-05-08T18:42:46.455Z,20.27
2023-05-08T18:45:14.665Z,19.40
2023-05-08T18:47:42.857Z,18.87
2023-05-08T18:50:13.020Z,18.80
2023-05-08T18:52:41.463Z,19.53
2023-05-08T18:55:10.939Z,19.97
2023-05-08T18:57:39.617Z,19.80
2023-05-08T19:00:09.583Z,19.97
2023-05-08T19:02:38.703Z,20.40
2023-05-08T19:05:08.480Z,20.10
2023-05-08T19:07:37.999Z,20.47
2023-05-08T19:10:07.038Z,21.33
2023-05-08T19:12:35.199Z,21.40
2023-05-08T19:15:03.548Z,21.90
2023-05-08T19:17:31.693Z,22.00
2023-05-08T19:19:59.777Z,22.83
2023-05-08T19:22:27.914Z,22.00
2023-05-08T19:24:57.447Z,21.77
2023-05-08T19:27:25.773Z,21.83
2023-05-08T19:29:53.957Z,22.57
2023-05-08T19:32:22.413Z,21.33
2023-05-08T19:34:51.005Z,20.93
2023-05-08T19:37:19.351Z,21.83
2023-05-08T19:39:47.941Z,22.10
2023-05-08T19:42:17.565Z,22.63
2023-05-08T19:44:45.741Z,21.97
2023-05-08T19:47:14.090Z,22.17
2023-05-08T19:49:42.289Z,22.10
2023-05-08T19:52:10.485Z,22.17
2023-05-08T19:54:38.631Z,22.10
2023-05-08T19:57:06.918Z,22.27
2023-05-08T19:59:36.498Z,23.07
2023-05-08T20:02:04.793Z,23.37
2023-05-08T20:04:42.148Z,22.70
2023-05-08T20:07:20.446Z,23.70
2023-05-08T20:09:48.572Z,23.73
2023-05-08T20:12:16.819Z,24.27
2023-05-08T20:14:46.478Z,23.60
2023-05-08T20:17:14.732Z,24.53
2023-05-08T20:19:42.932Z,24.03
2023-05-08T20:22:11.552Z,24.93
2023-05-08T20:24:40.488Z,23.60
2023-05-08T20:27:08.799Z,24.33
2023-05-08T20:29:37.022Z,24.50
2023-05-08T20:32:08.254Z,24.20
2023-05-08T20:34:36.459Z,24.70
2023-05-08T20:37:04.739Z,25.00
2023-05-08T20:39:32.856Z,24.57
2023-05-08T20:42:01.051Z,23.80
2023-05-08T20:44:29.196Z,24.63
2023-05-08T20:46:57.705Z,25.83
2023-05-08T20:49:27.253Z,24.67
2023-05-08T20:51:55.416Z,25.60
2023-05-08T20:54:23.548Z,25.17
2023-05-08T20:56:51.687Z,26.27
2023-05-08T20:59:19.903Z,25.60
2023-05-08T21:01:48.549Z,26.80
2023-05-08T21:04:16.839Z,26.10
2023-05-08T21:06:46.690Z,26.13
2023-05-08T21:09:14.861Z,24.47
2023-05-08T21:11:43.264Z,27.37
2023-05-08T21:14:11.569Z,26.10
2023-05-08T21:16:39.726Z,25.57
2023-05-08T21:19:09.838Z,26.13
2023-05-08T21:21:37.925Z,26.83
2023-05-08T21:24:07.944Z,27.97
2023-05-08T21:26:36.413Z,26.47
2023-05-08T21:29:05.190Z,26.50
2023-05-08T21:31:35.588Z,27.07
2023-05-08T21:34:03.757Z,26.23
2023-05-08T21:36:32.202Z,26.67
2023-05-08T21:39:00.316Z,26.60
2023-05-08T21:41:30.298Z,26.37
2023-05-08T21:43:58.387Z,27.27
2023-05-08T21:46:26.556Z,26.77
2023-05-08T21:48:54.646Z,27.70
2023-05-08T21:51:22.817Z,26.63
2023-05-08T21:53:51.152Z,27.10
2023-05-08T21:56:19.280Z,26.70
2023-05-08T21:58:49.140Z,26.73
2023-05-08T22:01:17.278Z,26.53
2023-05-08T22:03:45.544Z,27.30
2023-05-08T22:06:13.794Z,27.13
2023-05-08T22:08:41.988Z,27.90
2023-05-08T22:11:10.188Z,27.07
2023-05-08T22:13:38.297Z,28.27
2023-05-08T22:16:09.459Z,28.47
2023-05-08T22:18:37.799Z,27.43
2023-05-08T22:21:05.926Z,28.23
2023-05-08T22:23:34.885Z,29.50
2023-05-08T22:26:03.618Z,27.77
2023-05-08T22:28:31.793Z,29.23
2023-05-08T22:31:00.006Z,30.10
2023-05-08T22:33:33.874Z,27.97
2023-05-08T22:36:02.380Z,28.80
2023-05-08T22:38:30.523Z,28.50
2023-05-08T22:41:00.246Z,28.50
2023-05-08T22:43:28.705Z,28.60
2023-05-08T22:45:58.270Z,28.57
2023-05-08T22:48:26.655Z,27.57
2023-05-08T22:50:56.136Z,27.53
2023-05-08T22:53:24.283Z,28.10
2023-05-08T22:55:52.371Z,29.90
2023-05-08T22:58:20.528Z,27.60
2023-05-08T23:00:48.640Z,28.87
2023-05-08T23:03:16.879Z,29.10
2023-05-08T23:05:45.560Z,29.33
2023-05-08T23:08:15.228Z,28.67
2023-05-08T23:10:43.679Z,28.97
2023-05-08T23:13:11.828Z,27.30
2023-05-08T23:15:40.005Z,29.30
2023-05-08T23:18:08.228Z,28.90
2023-05-08T23:20:36.385Z,28.80
2023-05-08T23:23:04.586Z,29.93
2023-05-08T23:25:34.152Z,28.43
2023-05-08T23:28:02.248Z,29.27
2023-05-08T23:30:30.289Z,28.73
2023-05-08T23:32:58.393Z,28.37
2023-05-08T23:35:26.510Z,28.53
2023-05-08T23:37:54.611Z,28.80
2023-05-08T23:40:22.915Z,28.60
2023-05-08T23:42:52.896Z,28.03
2023-05-08T23:45:21.062Z,30.73
2023-05-08T23:47:49.353Z,29.43
2023-05-08T23:50:17.689Z,28.60
2023-05-08T23:52:45.942Z,28.17
2023-05-08T23:55:14.503Z,29.17
2023-05-08T23:57:42.770Z,28.60
